Athol Springs, NY

4:20 PM EDT on July 24, 2016 (GMT -0400)
Taylor Woods | | Change Station

Elev 820 ft 42.71 °N, 78.83 °W | Updated 2 minutes ago

Overcast
Overcast
82.8 °F
Feels Like 83 °F
N
0.0
Wind Variable Wind from NNW
Gusts 5.0 mph

Today
High -- | Low -- °F
--% Chance of Precip.
Yesterday
High -- | Low -- °F
Precip. -- in
Pressure 29.95 in
Visibility 10.0 miles
Clouds Few 7000 ft
Mostly Cloudy 16000 ft
Overcast 25000 ft
Heat Index 83 °F
Dew Point 62 °F
Humidity 49%
Rainfall 0.00 in
Snow Depth Not available.
5:59 AM 8:44 PM
Waning Gibbous, 73% visible
METAR KBUF 241954Z 24006KT 10SM FEW070 BKN160 OVC250 29/14 A2996 RMK AO2 SLP140 T02940144
Pressure 29.95 in
Visibility 10.0 miles
Clouds Few 7000 ft
Mostly Cloudy 16000 ft
Overcast 25000 ft
Heat Index 83 °F
Dew Point 62 °F
Humidity 49%
Rainfall 0.00 in
Snow Depth Not available.
5:59 AM 8:44 PM
Waning Gibbous, 73% visible
METAR KBUF 241954Z 24006KT 10SM FEW070 BKN160 OVC250 29/14 A2996 RMK AO2 SLP140 T02940144

10-Day Weather Forecast

Almanac

Astronomy

Jul. 24, 2016 Rise Set
Actual Time
Civil Twilight
Nautical Twilight
Astronomical Twilight
Moon
Length of Visible Light
Length of Day
Tomorrow will be .
, % of the Moon is Illuminated

Today's Extremes

State Highs State Lows

Community

WunderPhotos

Upload Photos

1,927,181 photos uploaded!

WunderBlog® & News

Nearby

Air Quality

  Air Quality AQ Index Pollutant
Not available.

Snow Depth

Station Depth Elevation

Earthquake Activity

City Distance Mag. Time & Date
Minimum magnitude displayed is 2.5.

Coastal Water Temperatures

Place Temperature

Stations

Nearby Weather Stations

Station Location Temp. Windchill Dew Point Humidity Wind Precip. Elev Updated Type
                   

Watches & Warnings

There are currently no watches in effect.